| time (UTC) | temp C | wind direction | speed KPH | gust KPH | rain 1hr cm | rain 24hr cm | rain mn cm | humidity % | barometer mb |
| 20260505181517 | 16 | 242 | 19.3 | 35.4 | 0.00 | 0.13 | 0.10 | 68 | 1008.5 |
| 20260505180016 | 15 | 238 | 14.5 | 37.0 | 0.03 | 0.13 | 0.10 | 68 | 1008.5 |
| 20260505174603 | 15 | 240 | 12.9 | 41.8 | 0.05 | 0.13 | 0.10 | 68 | 1008.9 |
| 20260505173058 | 15 | 246 | 19.3 | 38.6 | 0.05 | 0.13 | 0.10 | 67 | 1008.6 |
| 20260505171540 | 14 | 272 | 14.5 | 38.6 | 0.05 | 0.13 | 0.10 | 69 | 1008.3 |
| 20260505170034 | 15 | 231 | 25.7 | 49.9 | 0.03 | 0.10 | 0.08 | 71 | 1008.8 |
| 20260505164513 | 16 | 289 | 22.5 | 41.8 | 0.00 | 0.08 | 0.05 | 70 | 1008.3 |
| 20260505163012 | 17 | 254 | 9.7 | 19.3 | 0.00 | 0.08 | 0.05 | 70 | 1007.7 |
| 20260505161612 | 17 | 208 | 11.3 | 27.4 | 0.00 | 0.08 | 0.05 | 71 | 1007.5 |
| 20260505153035 | 18 | 233 | 24.1 | 38.6 | 0.00 | 0.08 | 0.05 | 66 | 1007.8 |
| 20260505151517 | 18 | 241 | 22.5 | 49.9 | 0.00 | 0.08 | 0.05 | 64 | 1007.7 |
| 20260505130109 | 16 | 225 | 17.7 | 30.6 | 0.03 | 0.05 | 0.03 | 69 | 1007.2 |
| 20260505124541 | 17 | 232 | 14.5 | 29.0 | 0.00 | 0.03 | 0.00 | 65 | 1007.1 |
| 20260505123043 | 17 | 219 | 19.3 | 48.3 | 0.00 | 0.03 | 0.00 | 64 | 1007.1 |
| 20260505121534 | 17 | 260 | 16.1 | 43.5 | 0.00 | 0.03 | 0.00 | 67 | 1007.1 |
| 20260505120031 | 16 | 180 | 12.9 | 30.6 | 0.00 | 0.03 | 0.00 | 69 | 1007.2 |
| 20260505114530 | 16 | 194 | 12.9 | 32.2 | 0.00 | 0.03 | 0.00 | 69 | 1007.1 |
| 20260505113028 | 16 | 192 | 12.9 | 32.2 | 0.00 | 0.03 | 0.00 | 69 | 1007.0 |
| 20260505111535 | 16 | 218 | 14.5 | 30.6 | 0.00 | 0.03 | 0.00 | 69 | 1007.0 |
| 20260505101547 | 14 | 167 | 6.4 | 17.7 | 0.03 | 0.03 | 0.03 | 70 | 1006.6 |
| 20260505100048 | 15 | 165 | 8.0 | 19.3 | 0.03 | 0.03 | 0.03 | 71 | 1006.9 |
| 20260505094529 | 15 | 195 | 9.7 | 20.9 | 0.00 | 0.00 | 0.00 | 71 | 1006.8 |
| 20260505093027 | 15 | 184 | 9.7 | 25.7 | 0.00 | 0.00 | 0.00 | 71 | 1007.1 |
| 20260505091509 | 15 | 236 | 9.7 | 22.5 | 0.00 | 0.00 | 0.00 | 70 | 1007.5 |
| 20260505090009 | 15 | 183 | 11.3 | 25.7 | 0.00 | 0.00 | 0.00 | 70 | 1007.1 |
| 20260505084551 | 15 | 215 | 11.3 | 27.4 | 0.00 | 0.00 | 0.00 | 68 | 1007.2 |
| 20260505083050 | 16 | 164 | 9.7 | 29.0 | 0.00 | 0.00 | 0.00 | 67 | 1007.4 |
| 20260505081542 | 16 | 212 | 9.7 | 29.0 | 0.00 | 0.00 | 0.00 | 65 | 1007.5 |
| 20260505080036 | 16 | 215 | 14.5 | 29.0 | 0.00 | 0.00 | 0.00 | 63 | 1007.6 |
| 20260505074513 | 16 | 224 | 9.7 | 22.5 | 0.00 | 0.00 | 0.00 | 62 | 1007.6 |
| 20260505073013 | 16 | 190 | 11.3 | 25.7 | 0.00 | 0.00 | 0.00 | 60 | 1007.6 |
| 20260505071607 | 16 | 215 | 12.9 | 37.0 | 0.00 | 0.00 | 0.00 | 59 | 1007.5 |
| 20260505070105 | 16 | 205 | 12.9 | 33.8 | 0.00 | 0.00 | 0.00 | 58 | 1007.4 |
| 20260505064538 | 16 | 191 | 12.9 | 25.7 | 0.00 | 0.00 | 0.00 | 57 | 1007.2 |
| 20260505063036 | 16 | 224 | 11.3 | 19.3 | 0.00 | 0.00 | 0.00 | 57 | 1007.2 |
| 20260505061517 | 16 | 187 | 9.7 | 20.9 | 0.00 | 0.00 | 0.00 | 56 | 1007.3 |
| 20260505060016 | 16 | 202 | 9.7 | 20.9 | 0.00 | 0.00 | 0.00 | 54 | 1007.5 |
| 20260505054558 | 16 | 213 | 11.3 | 24.1 | 0.00 | 0.00 | 0.00 | 53 | 1007.7 |
| 20260505053104 | 16 | 169 | 16.1 | 33.8 | 0.00 | 0.00 | 0.00 | 52 | 1007.8 |
| 20260505051542 | 16 | 187 | 9.7 | 24.1 | 0.00 | 0.00 | 0.00 | 51 | 1007.7 |
| 20260505041504 | 16 | 203 | 8.0 | 20.9 | 0.00 | 0.08 | 0.00 | 50 | 1008.0 |
| 20260505040003 | 16 | 198 | 6.4 | 16.1 | 0.00 | 0.10 | 0.00 | 51 | 1008.0 |
| 20260505034543 | 15 | 220 | 8.0 | 19.3 | 0.00 | 0.10 | 0.00 | 53 | 1007.9 |
| 20260505033046 | 15 | 235 | 0.0 | 0.0 | 0.00 | 0.10 | 0.00 | 53 | 1008.0 |
| 20260505031522 | 15 | 237 | 0.0 | 0.0 | 0.00 | 0.10 | 0.00 | 54 | 1008.1 |
| 20260505030026 | 15 | 239 | 0.0 | 0.0 | 0.00 | 0.18 | 0.00 | 55 | 1008.4 |
| 20260505024502 | 15 | 240 | 0.0 | 0.0 | 0.00 | 0.18 | 0.00 | 54 | 1008.7 |
| 20260505023002 | 15 | 241 | 0.0 | 11.3 | 0.00 | 0.18 | 0.00 | 53 | 1008.8 |
| 20260505021545 | 15 | 229 | 0.0 | 4.8 | 0.00 | 0.18 | 0.00 | 55 | 1008.9 |
| 20260505020044 | 15 | 221 | 0.0 | 6.4 | 0.00 | 0.30 | 0.00 | 54 | 1008.9 |
| 20260505014526 | 16 | 167 | 3.2 | 8.0 | 0.00 | 0.30 | 0.00 | 51 | 1008.9 |
| 20260505013026 | 16 | 154 | 3.2 | 9.7 | 0.00 | 0.30 | 0.00 | 51 | 1008.9 |
| 20260505011510 | 16 | 155 | 3.2 | 9.7 | 0.00 | 0.30 | 0.00 | 50 | 1009.0 |
| 20260505010008 | 17 | 173 | 4.8 | 12.9 | 0.00 | 0.30 | 0.00 | 51 | 1008.9 |
| 20260505004608 | 17 | 167 | 4.8 | 8.0 | 0.00 | 0.30 | 0.00 | 50 | 1008.9 |
| 20260505003050 | 17 | 182 | 6.4 | 11.3 | 0.00 | 0.30 | 0.00 | 48 | 1008.7 |
| 20260505001549 | 17 | 194 | 0.0 | 4.8 | 0.00 | 0.30 | 0.00 | 47 | 1008.9 |
| 20260505000033 | 18 | 205 | 3.2 | 9.7 | 0.00 | 0.30 | 0.00 | 46 | 1008.7 |
| 20260504234530 | 18 | 199 | 4.8 | 11.3 | 0.00 | 0.30 | 0.00 | 44 | 1008.7 |
| 20260504233013 | 18 | 221 | 4.8 | 14.5 | 0.00 | 0.30 | 0.00 | 44 | 1008.7 |
| 20260504231511 | 18 | 232 | 0.0 | 19.3 | 0.00 | 0.30 | 0.00 | 44 | 1008.8 |
| 20260504230053 | 18 | 250 | 9.7 | 16.1 | 0.00 | 0.30 | 0.00 | 44 | 1008.9 |
| 20260504224552 | 19 | 227 | 12.9 | 25.7 | 0.00 | 0.30 | 0.00 | 43 | 1008.9 |
| 20260504223032 | 19 | 200 | 14.5 | 22.5 | 0.00 | 0.30 | 0.00 | 44 | 1009.0 |
| 20260504221529 | 19 | 250 | 8.0 | 22.5 | 0.00 | 0.30 | 0.00 | 47 | 1009.1 |
| 20260504220012 | 19 | 247 | 11.3 | 24.1 | 0.00 | 0.30 | 0.00 | 47 | 1009.2 |
| 20260504214610 | 19 | 228 | 17.7 | 33.8 | 0.00 | 0.30 | 0.00 | 47 | 1009.3 |
| 20260504213056 | 18 | 248 | 17.7 | 33.8 | 0.00 | 0.30 | 0.00 | 47 | 1009.3 |
| 20260504211554 | 18 | 256 | 25.7 | 35.4 | 0.00 | 0.30 | 0.00 | 48 | 1009.4 |
| 20260504210031 | 18 | 252 | 19.3 | 35.4 | 0.00 | 0.30 | 0.00 | 48 | 1009.5 |
| 20260504204529 | 18 | 243 | 25.7 | 37.0 | 0.00 | 0.30 | 0.00 | 48 | 1009.7 |
| 20260504203013 | 18 | 252 | 24.1 | 45.1 | 0.00 | 0.30 | 0.00 | 47 | 1009.7 |
| 20260504201508 | 18 | 235 | 24.1 | 41.8 | 0.00 | 0.30 | 0.00 | 48 | 1009.8 |
| 20260504200055 | 18 | 229 | 12.9 | 40.2 | 0.00 | 0.30 | 0.00 | 49 | 1010.1 |
| 20260504194548 | 18 | 257 | 30.6 | 51.5 | 0.00 | 0.30 | 0.00 | 48 | 1010.1 |
| 20260504193027 | 18 | 205 | 20.9 | 35.4 | 0.00 | 0.30 | 0.00 | 49 | 1010.2 |
| 20260504191538 | 17 | 215 | 16.1 | 37.0 | 0.00 | 0.30 | 0.00 | 50 | 1010.4 |
| 20260504190014 | 17 | 202 | 19.3 | 40.2 | 0.00 | 0.30 | 0.00 | 51 | 1010.3 |
| 20260504184514 | 17 | 184 | 16.1 | 30.6 | 0.00 | 0.30 | 0.00 | 51 | 1010.3 |
| 20260504183020 | 17 | 360 | 25.7 | 38.6 | 0.00 | 0.30 | 0.00 | 51 | 1010.6 |